createdAt,value
2022-10-10T00:00:08.466Z,71.71
2022-10-10T00:02:34.941Z,72.67
2022-10-10T00:05:01.339Z,73.13
2022-10-10T00:07:27.641Z,74.35
2022-10-10T00:09:53.946Z,76.33
2022-10-10T00:12:20.272Z,77.00
2022-10-10T00:14:46.566Z,77.70
2022-10-10T00:17:12.895Z,78.24
2022-10-10T00:19:39.249Z,78.93
2022-10-10T00:22:05.596Z,79.27
2022-10-10T00:24:31.893Z,78.22
2022-10-10T00:26:58.280Z,78.48
2022-10-10T00:29:24.600Z,78.39
2022-10-10T00:31:50.911Z,78.65
2022-10-10T00:34:17.277Z,78.56
2022-10-10T00:36:43.583Z,77.56
2022-10-10T00:39:09.874Z,77.81
2022-10-10T00:41:36.319Z,76.81
2022-10-10T00:44:09.124Z,76.75
2022-10-10T00:46:35.997Z,76.49
2022-10-10T00:49:04.775Z,76.18
2022-10-10T00:51:31.344Z,74.61
2022-10-10T00:54:02.710Z,73.42
2022-10-10T00:56:44.017Z,73.67
2022-10-10T00:59:12.393Z,75.11
2022-10-10T01:01:40.972Z,74.37
2022-10-10T01:04:27.265Z,75.73
2022-10-10T01:06:53.650Z,74.41
2022-10-10T01:09:20.012Z,75.88
2022-10-10T01:11:54.851Z,75.74
2022-10-10T01:14:41.896Z,75.36
2022-10-10T01:17:14.558Z,75.96
2022-10-10T01:20:14.497Z,75.21
2022-10-10T01:23:07.943Z,74.58
2022-10-10T01:25:59.017Z,75.85
2022-10-10T01:28:43.682Z,75.46
2022-10-10T01:31:13.696Z,75.51
2022-10-10T01:33:54.810Z,74.49
2022-10-10T01:36:32.931Z,74.99
2022-10-10T01:39:09.158Z,76.13
2022-10-10T01:41:50.382Z,76.65
2022-10-10T01:44:20.504Z,76.00
2022-10-10T01:46:47.042Z,76.47
2022-10-10T01:49:13.400Z,75.32
2022-10-10T01:51:56.340Z,74.92
2022-10-10T01:54:41.318Z,76.50
2022-10-10T01:57:23.499Z,74.28
2022-10-10T02:00:12.688Z,74.13
2022-10-10T02:02:47.705Z,75.28
2022-10-10T02:05:17.277Z,75.36
2022-10-10T02:07:50.765Z,75.45
2022-10-10T02:10:23.353Z,75.76
2022-10-10T02:12:50.748Z,73.59
2022-10-10T02:15:22.359Z,73.56
2022-10-10T02:17:50.857Z,74.40
2022-10-10T02:20:21.845Z,73.15
2022-10-10T02:22:50.616Z,74.49
2022-10-10T02:25:24.166Z,72.72
2022-10-10T02:28:13.813Z,74.02
2022-10-10T02:30:46.630Z,72.60
2022-10-10T02:33:18.530Z,72.75
2022-10-10T02:35:49.270Z,73.00
2022-10-10T02:38:17.291Z,72.68
2022-10-10T02:40:47.296Z,73.67
2022-10-10T02:43:15.232Z,73.98
2022-10-10T02:45:41.650Z,74.14
2022-10-10T02:48:08.800Z,73.09
2022-10-10T02:50:35.403Z,73.56
2022-10-10T02:53:01.719Z,73.92
2022-10-10T02:55:28.139Z,72.76
2022-10-10T02:57:54.486Z,73.39
2022-10-10T03:00:20.988Z,71.37
2022-10-10T03:02:47.491Z,72.55
2022-10-10T03:05:14.500Z,72.11
2022-10-10T03:07:40.833Z,72.95
2022-10-10T03:10:07.581Z,71.97
2022-10-10T03:12:35.190Z,71.84
2022-10-10T03:15:01.867Z,72.45
2022-10-10T03:17:28.225Z,72.61
2022-10-10T03:19:54.539Z,72.00
2022-10-10T03:22:20.873Z,71.63
2022-10-10T03:24:47.253Z,72.55
2022-10-10T03:27:13.595Z,71.12
2022-10-10T03:29:39.903Z,72.40
2022-10-10T03:32:10.269Z,73.01
2022-10-10T03:34:37.439Z,72.91
2022-10-10T03:37:03.760Z,71.00
2022-10-10T03:39:30.182Z,71.41
2022-10-10T03:41:56.527Z,71.89
2022-10-10T03:44:22.900Z,70.12
2022-10-10T03:46:49.307Z,70.93
2022-10-10T03:49:15.666Z,69.57
2022-10-10T03:51:41.985Z,69.30
2022-10-10T03:54:08.393Z,69.41
2022-10-10T03:56:34.711Z,71.26
2022-10-10T03:59:03.646Z,69.92
2022-10-10T04:01:30.743Z,70.71
2022-10-10T04:03:57.157Z,71.59
2022-10-10T04:06:23.570Z,72.31
2022-10-10T04:08:50.179Z,70.79
2022-10-10T04:11:16.608Z,71.17
2022-10-10T04:13:42.944Z,70.87
2022-10-10T04:16:09.312Z,72.53
2022-10-10T04:18:35.664Z,72.08
2022-10-10T04:21:04.136Z,71.20
2022-10-10T04:23:30.636Z,71.08
2022-10-10T04:25:56.987Z,71.97
2022-10-10T04:28:23.338Z,70.99
2022-10-10T04:30:49.911Z,71.65
2022-10-10T04:33:16.234Z,70.87
2022-10-10T04:35:42.580Z,70.69
2022-10-10T04:38:09.147Z,72.61
2022-10-10T04:40:37.550Z,71.86
2022-10-10T04:43:04.075Z,73.22
2022-10-10T04:45:35.216Z,74.22
2022-10-10T04:48:03.767Z,73.98
2022-10-10T04:50:30.297Z,73.37
2022-10-10T04:52:56.599Z,74.75
2022-10-10T04:55:23.159Z,74.17
2022-10-10T04:57:49.564Z,74.25
2022-10-10T05:00:15.931Z,73.49
2022-10-10T05:02:42.295Z,73.01
2022-10-10T05:05:09.132Z,72.15
2022-10-10T05:07:35.563Z,72.88
2022-10-10T05:10:02.377Z,73.01
2022-10-10T05:12:28.803Z,70.85
2022-10-10T05:14:55.140Z,71.13
2022-10-10T05:17:21.450Z,69.91
2022-10-10T05:19:48.119Z,69.45
2022-10-10T05:22:14.469Z,69.40
2022-10-10T05:24:40.984Z,69.48
2022-10-10T05:27:07.317Z,68.90
2022-10-10T05:29:33.665Z,68.31
2022-10-10T05:32:00.036Z,68.15
2022-10-10T05:34:26.511Z,70.23
2022-10-10T05:36:52.920Z,69.21
2022-10-10T05:39:19.250Z,70.78
2022-10-10T05:41:45.548Z,70.79
2022-10-10T05:44:11.884Z,70.13
2022-10-10T05:46:38.256Z,70.70
2022-10-10T05:49:04.602Z,70.72
2022-10-10T05:51:30.977Z,69.99
2022-10-10T05:53:57.488Z,70.16
2022-10-10T05:56:23.872Z,70.62
2022-10-10T05:58:51.539Z,71.10
2022-10-10T06:01:18.368Z,70.86
2022-10-10T06:03:44.688Z,71.80
2022-10-10T06:06:11.023Z,71.55
2022-10-10T06:08:37.341Z,71.77
2022-10-10T06:11:07.970Z,73.17
2022-10-10T06:13:34.691Z,72.11
2022-10-10T06:16:01.040Z,72.69
2022-10-10T06:18:27.461Z,73.94
2022-10-10T06:20:53.767Z,74.85
2022-10-10T06:23:20.592Z,75.27
2022-10-10T06:25:47.175Z,75.20
2022-10-10T06:28:13.535Z,76.21
2022-10-10T06:30:44.218Z,77.32
2022-10-10T06:33:12.339Z,77.86
2022-10-10T06:35:40.771Z,78.17
2022-10-10T06:38:07.265Z,79.38
2022-10-10T06:40:33.675Z,79.56
2022-10-10T06:42:59.997Z,79.43
2022-10-10T06:45:26.562Z,79.49
2022-10-10T06:47:52.910Z,79.63
2022-10-10T06:50:19.232Z,79.79
2022-10-10T06:52:45.534Z,79.69
2022-10-10T06:55:11.883Z,79.38
2022-10-10T06:57:38.198Z,81.42
2022-10-10T07:00:05.680Z,80.83
2022-10-10T07:02:32.116Z,80.69
2022-10-10T07:04:58.486Z,80.41
2022-10-10T07:07:24.840Z,81.04
2022-10-10T07:09:51.173Z,81.68
2022-10-10T07:12:17.509Z,80.63
2022-10-10T07:14:43.852Z,81.31
2022-10-10T07:17:10.200Z,81.89
2022-10-10T07:19:37.762Z,81.96
2022-10-10T07:22:04.107Z,81.51
2022-10-10T07:24:30.498Z,81.53
2022-10-10T07:27:04.787Z,82.00
2022-10-10T07:29:33.109Z,81.70
2022-10-10T07:31:59.646Z,80.65
2022-10-10T07:34:26.028Z,80.72
2022-10-10T07:36:52.422Z,78.94
2022-10-10T07:39:20.599Z,81.12
2022-10-10T07:41:46.993Z,79.88
2022-10-10T07:44:13.343Z,81.12
2022-10-10T07:46:39.656Z,79.92
2022-10-10T07:49:05.986Z,80.17
2022-10-10T07:51:32.329Z,80.22
2022-10-10T07:53:58.828Z,79.54
2022-10-10T07:56:25.239Z,79.75
2022-10-10T07:58:51.655Z,80.31
2022-10-10T08:01:18.277Z,78.62
2022-10-10T08:03:45.310Z,77.87
2022-10-10T08:06:15.431Z,78.08
2022-10-10T08:08:50.861Z,77.32
2022-10-10T08:11:18.993Z,77.79
2022-10-10T08:13:45.407Z,78.27
2022-10-10T08:16:11.900Z,77.87
2022-10-10T08:18:38.262Z,78.28
2022-10-10T08:21:07.664Z,77.08
2022-10-10T08:23:34.337Z,76.69
2022-10-10T08:26:02.434Z,76.65
2022-10-10T08:28:29.481Z,76.72
2022-10-10T08:30:55.953Z,76.49
2022-10-10T08:33:25.507Z,77.10
2022-10-10T08:35:51.844Z,76.98
2022-10-10T08:38:18.190Z,76.83
2022-10-10T08:40:47.690Z,77.50
2022-10-10T08:43:21.782Z,76.91
2022-10-10T08:45:51.028Z,77.08
2022-10-10T08:48:27.285Z,77.67
2022-10-10T08:51:00.629Z,75.97
2022-10-10T08:53:39.173Z,74.60
2022-10-10T08:56:07.845Z,75.02
2022-10-10T08:58:43.017Z,73.70
2022-10-10T09:01:28.063Z,74.45
2022-10-10T09:03:59.121Z,74.99
2022-10-10T09:06:53.615Z,74.85
2022-10-10T09:09:36.689Z,73.46
2022-10-10T09:12:21.623Z,73.50
2022-10-10T09:15:28.238Z,73.67
2022-10-10T09:17:54.563Z,73.26
2022-10-10T09:20:27.131Z,73.54
2022-10-10T09:23:06.045Z,73.52
2022-10-10T09:25:48.740Z,72.99
2022-10-10T09:28:32.939Z,73.01
2022-10-10T09:31:01.857Z,72.27
2022-10-10T09:33:36.909Z,72.53
2022-10-10T09:36:08.425Z,72.96
2022-10-10T09:38:43.312Z,71.94
2022-10-10T09:41:21.920Z,72.08
2022-10-10T09:43:48.451Z,72.17
2022-10-10T09:46:14.920Z,71.95
2022-10-10T09:48:43.063Z,71.93
2022-10-10T09:51:15.508Z,72.22
2022-10-10T09:53:43.467Z,71.86
2022-10-10T09:56:19.457Z,72.05
2022-10-10T09:58:48.778Z,71.82
2022-10-10T10:01:27.346Z,71.75
2022-10-10T10:04:27.778Z,71.83
2022-10-10T10:07:20.334Z,71.84
2022-10-10T10:09:52.167Z,71.57
2022-10-10T10:12:24.037Z,71.81
2022-10-10T10:14:51.050Z,71.53
2022-10-10T10:17:22.328Z,70.80
2022-10-10T10:19:48.733Z,71.02
2022-10-10T10:22:39.497Z,70.37
2022-10-10T10:25:31.412Z,71.04
2022-10-10T10:28:40.487Z,71.28
2022-10-10T10:31:16.990Z,70.23
2022-10-10T10:34:10.430Z,70.08
2022-10-10T10:36:47.279Z,69.93
2022-10-10T10:39:33.543Z,70.49
2022-10-10T10:42:20.742Z,70.41
2022-10-10T10:45:19.003Z,70.45
2022-10-10T10:47:55.652Z,70.04
2022-10-10T10:50:34.653Z,69.93
2022-10-10T10:53:22.720Z,69.57
2022-10-10T10:55:51.346Z,69.70
2022-10-10T11:01:55.975Z,70.24
2022-10-10T11:05:19.394Z,70.15
2022-10-10T11:07:53.449Z,70.72
2022-10-10T11:10:33.023Z,70.12
2022-10-10T11:13:28.855Z,70.44
2022-10-10T11:16:36.676Z,70.36
2022-10-10T11:19:14.350Z,70.53
2022-10-10T11:21:56.089Z,70.11
2022-10-10T11:24:28.393Z,70.04
2022-10-10T11:26:59.807Z,69.69
2022-10-10T11:29:38.859Z,69.48
2022-10-10T11:32:14.996Z,70.22
2022-10-10T11:35:07.207Z,70.25
2022-10-10T11:37:37.584Z,70.49
2022-10-10T11:40:06.289Z,70.08
2022-10-10T11:42:37.458Z,70.24
2022-10-10T11:45:09.774Z,70.05
2022-10-10T11:47:47.923Z,70.36
2022-10-10T11:50:19.916Z,70.32
2022-10-10T11:52:54.431Z,70.40
2022-10-10T11:55:41.810Z,69.73
2022-10-10T11:58:08.079Z,69.67
2022-10-10T12:00:37.861Z,70.04
2022-10-10T12:03:04.255Z,70.15
2022-10-10T12:05:35.253Z,70.92
2022-10-10T12:08:18.068Z,70.42
2022-10-10T12:10:52.399Z,71.06
2022-10-10T12:13:21.441Z,70.27
2022-10-10T12:15:51.850Z,69.80
2022-10-10T12:18:31.811Z,70.33
2022-10-10T12:21:10.401Z,70.84
2022-10-10T12:23:37.913Z,70.50
2022-10-10T12:26:04.781Z,70.27
2022-10-10T12:28:37.412Z,70.68
2022-10-10T12:31:03.957Z,70.41
2022-10-10T12:33:33.446Z,71.08
2022-10-10T12:36:20.984Z,71.11
2022-10-10T12:39:10.329Z,69.94
2022-10-10T12:41:56.050Z,69.53
2022-10-10T12:44:42.899Z,69.23
2022-10-10T12:47:15.418Z,69.22
2022-10-10T12:50:18.749Z,69.75
2022-10-10T12:52:49.582Z,69.62
2022-10-10T12:55:29.598Z,70.81
2022-10-10T12:58:07.180Z,70.68
2022-10-10T13:00:39.447Z,70.98
2022-10-10T13:03:16.306Z,71.19
2022-10-10T13:05:43.556Z,70.17
2022-10-10T13:08:19.427Z,70.18
2022-10-10T13:11:21.414Z,69.19
2022-10-10T13:13:52.671Z,70.18
2022-10-10T13:16:23.147Z,69.29
2022-10-10T13:18:51.226Z,69.72
2022-10-10T13:21:32.657Z,70.06
2022-10-10T13:24:03.760Z,68.70
2022-10-10T13:26:43.919Z,69.71
2022-10-10T13:29:25.584Z,69.67
2022-10-10T13:31:55.077Z,69.74
2022-10-10T13:34:29.472Z,69.57
2022-10-10T13:36:58.356Z,68.77
2022-10-10T13:39:25.750Z,69.89
2022-10-10T13:41:53.686Z,69.16
2022-10-10T13:44:25.495Z,69.70
2022-10-10T13:46:51.901Z,69.74
2022-10-10T13:49:29.518Z,69.87
2022-10-10T13:52:21.542Z,69.60
2022-10-10T13:54:48.939Z,69.69
2022-10-10T13:57:24.109Z,70.65
2022-10-10T14:00:00.652Z,69.74
2022-10-10T14:02:31.576Z,69.93
2022-10-10T14:04:59.065Z,69.84
2022-10-10T14:07:30.624Z,70.69
2022-10-10T14:10:00.189Z,69.81
2022-10-10T14:12:37.338Z,70.59
2022-10-10T14:15:04.932Z,71.29
2022-10-10T14:17:31.530Z,70.68
2022-10-10T14:19:57.903Z,71.00
2022-10-10T14:22:24.310Z,70.79
2022-10-10T14:24:50.679Z,70.39
2022-10-10T14:27:19.879Z,71.08
2022-10-10T14:29:46.851Z,70.33
2022-10-10T14:32:14.485Z,70.49
2022-10-10T14:34:41.159Z,70.86
2022-10-10T14:37:16.857Z,70.03
2022-10-10T14:39:43.201Z,70.97
2022-10-10T14:42:12.618Z,70.31
2022-10-10T14:44:38.958Z,70.50
2022-10-10T14:47:05.439Z,70.27
2022-10-10T14:49:31.770Z,70.68
2022-10-10T14:51:58.138Z,70.54
2022-10-10T14:54:24.499Z,70.38
2022-10-10T14:57:07.744Z,70.52
2022-10-10T14:59:48.255Z,71.61
2022-10-10T15:02:21.714Z,71.78
2022-10-10T15:04:48.571Z,70.70
2022-10-10T15:07:15.880Z,71.63
2022-10-10T15:09:57.685Z,71.39
2022-10-10T15:12:29.313Z,71.23
2022-10-10T15:14:55.687Z,72.14
2022-10-10T15:17:22.572Z,71.24
2022-10-10T15:19:48.911Z,71.05
2022-10-10T15:22:15.252Z,72.94
2022-10-10T15:24:41.595Z,72.56
2022-10-10T15:27:08.004Z,72.07
2022-10-10T15:29:34.387Z,72.76
2022-10-10T15:32:01.667Z,68.70
2022-10-10T15:34:28.062Z,74.62
2022-10-10T15:36:54.385Z,76.44
2022-10-10T15:39:20.780Z,76.48
2022-10-10T15:41:47.298Z,77.23
2022-10-10T15:44:18.783Z,78.09
2022-10-10T15:46:45.918Z,78.23
2022-10-10T15:49:13.478Z,79.33
2022-10-10T15:51:45.167Z,79.15
2022-10-10T15:54:12.255Z,79.47
2022-10-10T15:56:38.922Z,78.49
2022-10-10T15:59:05.582Z,77.51
2022-10-10T16:01:32.422Z,77.70
2022-10-10T16:03:58.896Z,76.04
2022-10-10T16:06:25.969Z,76.50
2022-10-10T16:09:04.232Z,75.06
2022-10-10T16:11:38.969Z,75.18
2022-10-10T16:14:05.330Z,75.69
2022-10-10T16:16:31.904Z,75.54
2022-10-10T16:18:59.668Z,75.57
2022-10-10T16:21:26.369Z,74.46
2022-10-10T16:23:57.902Z,74.30
2022-10-10T16:26:26.672Z,74.21
2022-10-10T16:28:54.483Z,74.07
2022-10-10T16:31:21.235Z,74.94
2022-10-10T16:33:48.667Z,74.11
2022-10-10T16:36:20.916Z,74.05
2022-10-10T16:38:48.256Z,74.41
2022-10-10T16:41:35.611Z,74.58
2022-10-10T16:44:03.094Z,73.82
2022-10-10T16:46:29.565Z,73.88
2022-10-10T16:48:58.521Z,74.36
2022-10-10T16:51:25.454Z,74.85
2022-10-10T16:53:52.142Z,74.83
2022-10-10T16:56:20.546Z,75.32
2022-10-10T16:58:47.328Z,75.42
2022-10-10T17:01:16.203Z,74.83
2022-10-10T17:03:42.980Z,74.96
2022-10-10T17:06:16.151Z,75.46
2022-10-10T17:08:43.174Z,75.23
2022-10-10T17:11:10.049Z,75.50
2022-10-10T17:13:37.954Z,75.58
2022-10-10T17:16:40.452Z,74.26
2022-10-10T17:18:53.126Z,78.53
2022-10-10T17:21:24.623Z,78.85
2022-10-10T17:23:51.639Z,79.65
2022-10-10T17:26:22.483Z,78.84
2022-10-10T17:28:50.347Z,80.25
2022-10-10T17:31:17.689Z,79.84
2022-10-10T17:33:53.291Z,79.72
2022-10-10T17:36:23.333Z,80.08
2022-10-10T17:38:49.747Z,81.21
2022-10-10T17:41:16.961Z,81.00
2022-10-10T17:43:44.096Z,81.12
2022-10-10T17:46:33.177Z,81.35
2022-10-10T17:48:59.797Z,81.97
2022-10-10T17:51:26.163Z,82.02
2022-10-10T17:53:52.940Z,82.39
2022-10-10T17:56:21.554Z,83.47
2022-10-10T17:58:48.873Z,84.25
2022-10-10T18:01:16.518Z,84.35
2022-10-10T18:03:43.188Z,83.98
2022-10-10T18:06:15.095Z,83.51
2022-10-10T18:08:41.567Z,82.33
2022-10-10T18:11:23.257Z,82.41
2022-10-10T18:13:50.505Z,82.47
2022-10-10T18:16:21.378Z,81.46
2022-10-10T18:18:51.390Z,80.78
2022-10-10T18:21:20.615Z,81.03
2022-10-10T18:23:47.982Z,80.60
2022-10-10T18:26:20.592Z,80.44
2022-10-10T18:28:47.870Z,80.69
2022-10-10T18:31:21.082Z,81.16
2022-10-10T18:33:48.452Z,82.14
2022-10-10T18:36:20.350Z,81.95
2022-10-10T18:38:46.946Z,82.75
2022-10-10T18:41:18.672Z,82.85
2022-10-10T18:43:45.506Z,80.78
2022-10-10T18:46:14.489Z,80.20
2022-10-10T18:48:41.902Z,79.64
2022-10-10T18:51:16.791Z,79.20
2022-10-10T18:53:45.507Z,79.06
2022-10-10T18:56:14.077Z,80.22
2022-10-10T18:58:41.287Z,80.07
2022-10-10T19:01:12.704Z,79.96
2022-10-10T19:03:40.519Z,80.56
2022-10-10T19:06:09.748Z,79.08
2022-10-10T19:08:37.100Z,78.56
2022-10-10T19:11:05.342Z,78.23
2022-10-10T19:13:33.043Z,80.01
2022-10-10T19:16:04.509Z,81.03
2022-10-10T19:18:30.873Z,80.97
2022-10-10T19:21:05.437Z,81.16
2022-10-10T19:23:33.682Z,81.53
2022-10-10T19:26:08.506Z,81.72
2022-10-10T19:28:36.234Z,80.98
2022-10-10T19:31:05.779Z,80.89
2022-10-10T19:33:32.751Z,81.45
2022-10-10T19:36:01.892Z,80.99
2022-10-10T19:38:30.477Z,80.57
2022-10-10T19:40:56.881Z,80.07
2022-10-10T19:43:23.324Z,79.96
2022-10-10T19:45:53.516Z,79.63
2022-10-10T19:48:21.395Z,78.75
2022-10-10T19:50:48.504Z,76.81
2022-10-10T19:53:18.102Z,76.03
2022-10-10T19:55:55.932Z,75.90
2022-10-10T19:58:22.268Z,76.55
2022-10-10T20:00:48.752Z,75.73
2022-10-10T20:03:15.148Z,76.13
2022-10-10T20:05:41.464Z,76.55
2022-10-10T20:08:07.772Z,77.17
2022-10-10T20:10:34.243Z,77.69
2022-10-10T20:13:00.598Z,79.20
2022-10-10T20:15:26.953Z,79.36
2022-10-10T20:17:53.318Z,78.68
2022-10-10T20:20:19.744Z,78.59
2022-10-10T20:22:46.155Z,79.07
2022-10-10T20:25:12.588Z,79.69
2022-10-10T20:27:39.051Z,79.80
2022-10-10T20:30:06.059Z,79.86
2022-10-10T20:32:32.556Z,80.71
2022-10-10T20:34:58.937Z,80.54
2022-10-10T20:37:25.290Z,79.90
2022-10-10T20:39:51.625Z,80.62
2022-10-10T20:42:17.991Z,79.74
2022-10-10T20:44:44.350Z,80.81
2022-10-10T20:47:10.704Z,80.03
2022-10-10T20:49:37.155Z,81.04
2022-10-10T20:52:03.520Z,81.19
2022-10-10T20:54:29.909Z,80.92
2022-10-10T20:56:56.217Z,81.62
2022-10-10T20:59:24.345Z,81.62
2022-10-10T21:01:50.955Z,81.26
2022-10-10T21:04:17.484Z,81.73
2022-10-10T21:06:43.919Z,81.16
2022-10-10T21:09:12.760Z,81.34
2022-10-10T21:11:39.654Z,81.41
2022-10-10T21:14:07.085Z,81.34
2022-10-10T21:16:36.920Z,81.82
2022-10-10T21:19:04.778Z,82.66
2022-10-10T21:21:33.485Z,82.10
2022-10-10T21:24:00.889Z,82.29
2022-10-10T21:26:28.602Z,82.16
2022-10-10T21:28:55.870Z,81.85
2022-10-10T21:31:25.837Z,81.80
2022-10-10T21:33:53.352Z,81.09
2022-10-10T21:36:21.199Z,81.71
2022-10-10T21:38:47.729Z,80.86
2022-10-10T21:41:18.986Z,80.64
2022-10-10T21:43:47.475Z,81.16
2022-10-10T21:46:17.025Z,81.37
2022-10-10T21:48:43.994Z,80.21
2022-10-10T21:51:10.533Z,80.75
2022-10-10T21:53:37.079Z,80.73
2022-10-10T21:56:06.550Z,80.66
2022-10-10T21:58:36.063Z,81.08
2022-10-10T22:01:20.239Z,79.99
2022-10-10T22:03:48.869Z,80.83
2022-10-10T22:06:18.239Z,80.30
2022-10-10T22:08:45.052Z,80.26
2022-10-10T22:11:15.499Z,80.76
2022-10-10T22:13:41.940Z,80.44
2022-10-10T22:16:09.387Z,80.39
2022-10-10T22:18:36.688Z,79.90
2022-10-10T22:21:12.405Z,79.99
2022-10-10T22:23:39.203Z,78.57
2022-10-10T22:26:11.299Z,78.36
2022-10-10T22:28:37.720Z,78.34
2022-10-10T22:31:06.094Z,78.30
2022-10-10T22:33:32.402Z,77.47
2022-10-10T22:35:58.805Z,77.80
2022-10-10T22:38:25.262Z,77.44
2022-10-10T22:40:51.863Z,76.63
2022-10-10T22:43:18.304Z,76.62
2022-10-10T22:45:44.753Z,75.46
2022-10-10T22:48:11.168Z,75.59
2022-10-10T22:50:38.602Z,74.32
2022-10-10T22:53:06.052Z,75.28
2022-10-10T22:55:33.545Z,75.73
2022-10-10T22:57:59.950Z,75.52
2022-10-10T23:00:26.398Z,75.13
2022-10-10T23:02:56.750Z,74.62
2022-10-10T23:05:23.182Z,75.54
2022-10-10T23:07:49.513Z,75.07
2022-10-10T23:10:15.855Z,75.60
2022-10-10T23:12:42.782Z,76.16
2022-10-10T23:15:09.425Z,76.45
2022-10-10T23:17:36.561Z,75.81
2022-10-10T23:20:03.764Z,76.17
2022-10-10T23:22:30.102Z,76.28
2022-10-10T23:24:56.457Z,76.91
2022-10-10T23:27:22.830Z,77.04
2022-10-10T23:29:49.146Z,76.77
2022-10-10T23:32:15.508Z,76.54
2022-10-10T23:34:41.842Z,76.73
2022-10-10T23:37:08.198Z,77.43
2022-10-10T23:39:34.580Z,77.51
2022-10-10T23:42:00.927Z,76.76
2022-10-10T23:44:27.257Z,76.97
2022-10-10T23:46:53.579Z,76.55
2022-10-10T23:49:19.918Z,77.25
2022-10-10T23:51:46.226Z,77.29
2022-10-10T23:54:12.536Z,77.33
2022-10-10T23:56:38.899Z,77.03
2022-10-10T23:59:05.210Z,76.78
